createdAt,value
2017-09-27T00:00:55.178Z,15.70
2017-09-27T00:03:22.839Z,16.20
2017-09-27T00:05:50.410Z,16.40
2017-09-27T00:08:17.978Z,16.40
2017-09-27T00:10:45.599Z,16.20
2017-09-27T00:13:13.215Z,16.40
2017-09-27T00:15:41.558Z,16.10
2017-09-27T00:18:09.151Z,16.10
2017-09-27T00:20:37.538Z,16.10
2017-09-27T00:23:05.931Z,16.30
2017-09-27T00:25:33.502Z,16.30
2017-09-27T00:28:01.083Z,15.80
2017-09-27T00:30:28.706Z,15.50
2017-09-27T00:32:57.048Z,15.70
2017-09-27T00:35:24.667Z,15.60
2017-09-27T00:37:52.246Z,15.60
2017-09-27T00:40:19.818Z,15.80
2017-09-27T00:42:47.443Z,16.00
2017-09-27T00:45:15.043Z,15.60
2017-09-27T00:47:42.656Z,15.40
2017-09-27T00:50:10.265Z,15.40
2017-09-27T00:52:37.898Z,15.40
2017-09-27T00:55:05.478Z,15.20
2017-09-27T00:57:33.047Z,15.30
2017-09-27T01:00:00.673Z,15.50
2017-09-27T01:02:28.291Z,15.10
2017-09-27T01:04:55.858Z,15.20
2017-09-27T01:07:23.476Z,15.40
2017-09-27T01:09:51.046Z,15.40
2017-09-27T01:12:18.676Z,15.20
2017-09-27T01:14:46.248Z,15.00
2017-09-27T01:17:13.815Z,15.40
2017-09-27T01:19:41.451Z,15.30
2017-09-27T01:22:09.796Z,15.70
2017-09-27T01:24:37.390Z,15.60
2017-09-27T01:27:05.807Z,15.50
2017-09-27T01:29:33.388Z,15.50
2017-09-27T01:32:00.971Z,15.40
2017-09-27T01:34:28.583Z,15.60
2017-09-27T01:36:56.215Z,15.40
2017-09-27T01:39:24.556Z,14.90
2017-09-27T01:41:52.199Z,14.90
2017-09-27T01:44:19.782Z,15.00
2017-09-27T01:46:47.401Z,15.40
2017-09-27T01:49:15.012Z,15.40
2017-09-27T01:51:42.626Z,15.60
2017-09-27T01:54:10.264Z,15.60
2017-09-27T01:56:37.847Z,15.50
2017-09-27T01:59:05.465Z,15.20
2017-09-27T02:01:33.042Z,15.30
2017-09-27T02:04:01.474Z,15.10
2017-09-27T02:06:29.080Z,15.10
2017-09-27T02:08:57.480Z,14.50
2017-09-27T02:11:25.058Z,14.40
2017-09-27T02:13:53.420Z,14.80
2017-09-27T02:16:21.039Z,14.80
2017-09-27T02:18:48.608Z,14.90
2017-09-27T02:21:16.197Z,14.80
2017-09-27T02:23:43.794Z,15.10
2017-09-27T02:26:11.426Z,15.20
2017-09-27T02:28:39.003Z,15.30
2017-09-27T02:31:06.576Z,15.40
2017-09-27T02:33:34.192Z,15.30
2017-09-27T02:36:02.571Z,14.90
2017-09-27T02:38:30.979Z,14.90
2017-09-27T02:40:58.612Z,14.90
2017-09-27T02:43:26.190Z,14.90
2017-09-27T02:45:53.774Z,14.80
2017-09-27T02:48:21.393Z,15.00
2017-09-27T02:50:49.803Z,14.40
2017-09-27T02:53:17.380Z,14.40
2017-09-27T02:55:44.957Z,14.50
2017-09-27T02:58:12.567Z,14.70
2017-09-27T03:00:40.160Z,15.00
2017-09-27T03:03:07.777Z,14.90
2017-09-27T03:05:36.105Z,14.60
2017-09-27T03:08:03.684Z,14.50
2017-09-27T03:10:31.311Z,14.40
2017-09-27T03:12:58.911Z,14.40
2017-09-27T03:15:26.506Z,14.60
2017-09-27T03:17:54.103Z,14.80
2017-09-27T03:20:21.670Z,14.50
2017-09-27T03:22:49.310Z,14.20
2017-09-27T03:25:16.931Z,14.60
2017-09-27T03:27:44.513Z,14.90
2017-09-27T03:30:12.860Z,14.20
2017-09-27T03:32:40.476Z,14.20
2017-09-27T03:35:08.058Z,14.20
2017-09-27T03:37:35.644Z,14.40
2017-09-27T03:40:03.314Z,14.80
2017-09-27T03:42:30.950Z,14.40
2017-09-27T03:44:58.518Z,14.20
2017-09-27T03:47:26.110Z,14.40
2017-09-27T03:49:54.507Z,15.00
2017-09-27T03:52:22.082Z,15.00
2017-09-27T03:54:49.650Z,15.10
2017-09-27T03:57:17.252Z,15.20
2017-09-27T03:59:44.889Z,15.30
2017-09-27T04:02:12.519Z,15.00
2017-09-27T04:04:40.100Z,14.60
2017-09-27T04:07:07.712Z,14.50
2017-09-27T04:09:36.086Z,14.20
2017-09-27T04:12:03.703Z,14.20
2017-09-27T04:14:31.276Z,14.40
2017-09-27T04:16:58.848Z,14.30
2017-09-27T04:19:26.475Z,14.60
2017-09-27T04:21:54.039Z,14.90
2017-09-27T04:24:21.617Z,15.00
2017-09-27T04:26:49.242Z,15.00
2017-09-27T04:29:16.866Z,14.90
2017-09-27T04:31:44.486Z,14.90
2017-09-27T04:34:12.123Z,14.90
2017-09-27T04:36:40.451Z,14.90
2017-09-27T04:39:08.032Z,14.90
2017-09-27T04:41:35.655Z,15.00
2017-09-27T04:44:03.226Z,14.80
2017-09-27T04:46:30.855Z,14.70
2017-09-27T04:48:58.432Z,14.60
2017-09-27T04:51:26.007Z,14.50
2017-09-27T04:53:53.632Z,14.60
2017-09-27T04:56:21.232Z,14.40
2017-09-27T04:58:48.840Z,14.50
2017-09-27T05:01:17.214Z,14.70
2017-09-27T05:03:45.551Z,14.70
2017-09-27T05:06:13.177Z,14.60
2017-09-27T05:08:40.754Z,14.80
2017-09-27T05:11:08.346Z,14.80
2017-09-27T05:13:35.963Z,14.80
2017-09-27T05:16:03.535Z,14.90
2017-09-27T05:18:31.116Z,14.90
2017-09-27T05:20:58.726Z,14.90
2017-09-27T05:23:27.109Z,14.00
2017-09-27T05:25:55.447Z,13.80
2017-09-27T05:28:23.057Z,13.80
2017-09-27T05:30:50.635Z,13.80
2017-09-27T05:33:18.259Z,14.00
2017-09-27T05:35:46.600Z,14.70
2017-09-27T05:38:14.203Z,14.70
2017-09-27T05:40:42.574Z,14.50
2017-09-27T05:43:10.252Z,14.50
2017-09-27T05:45:37.892Z,14.50
2017-09-27T05:48:05.456Z,14.40
2017-09-27T05:50:33.050Z,14.00
2017-09-27T05:53:00.901Z,13.60
2017-09-27T05:55:29.284Z,14.00
2017-09-27T05:57:56.854Z,14.00
2017-09-27T06:00:24.428Z,14.00
2017-09-27T06:02:52.042Z,14.00
2017-09-27T06:05:19.664Z,14.40
2017-09-27T06:07:47.234Z,14.40
2017-09-27T06:10:14.857Z,14.50
2017-09-27T06:12:42.429Z,14.20
2017-09-27T06:15:10.196Z,14.30
2017-09-27T06:17:37.849Z,14.40
2017-09-27T06:20:05.419Z,14.70
2017-09-27T06:22:32.989Z,14.30
2017-09-27T06:25:00.644Z,14.40
2017-09-27T06:27:28.212Z,14.60
2017-09-27T06:29:55.777Z,14.60
2017-09-27T06:32:23.402Z,14.50
2017-09-27T06:34:52.677Z,14.10
2017-09-27T06:37:20.262Z,14.10
2017-09-27T06:39:48.648Z,13.60
2017-09-27T06:42:16.255Z,13.60
2017-09-27T06:44:44.074Z,14.20
2017-09-27T06:47:12.401Z,14.60
2017-09-27T06:49:40.383Z,14.90
2017-09-27T06:52:08.038Z,14.50
2017-09-27T06:54:35.649Z,14.10
2017-09-27T06:57:03.222Z,14.00
2017-09-27T06:59:30.794Z,13.90
2017-09-27T07:01:58.430Z,14.40
2017-09-27T07:04:26.022Z,14.90
2017-09-27T07:06:53.602Z,15.10
2017-09-27T07:09:21.202Z,15.20
2017-09-27T07:11:49.532Z,14.60
2017-09-27T07:14:17.147Z,14.60
2017-09-27T07:16:45.539Z,15.00
2017-09-27T07:19:19.010Z,15.10
2017-09-27T07:21:47.468Z,15.40
2017-09-27T07:24:15.097Z,15.40
2017-09-27T07:26:43.516Z,15.60
2017-09-27T07:29:11.887Z,15.50
2017-09-27T07:31:39.506Z,15.50
2017-09-27T07:34:07.112Z,15.30
2017-09-27T07:36:34.742Z,15.40
2017-09-27T07:39:03.077Z,15.50
2017-09-27T07:41:31.484Z,15.80
2017-09-27T07:44:00.115Z,15.70
2017-09-27T07:46:27.694Z,15.50
2017-09-27T07:48:55.323Z,15.50
2017-09-27T07:51:22.894Z,15.70
2017-09-27T07:53:50.507Z,15.70
2017-09-27T07:56:18.092Z,15.80
2017-09-27T07:58:45.703Z,15.40
2017-09-27T08:01:13.342Z,15.20
2017-09-27T08:03:40.931Z,15.40
2017-09-27T08:06:09.302Z,15.30
2017-09-27T08:08:36.920Z,15.30
2017-09-27T08:11:04.535Z,15.60
2017-09-27T08:13:38.136Z,16.00
2017-09-27T08:16:06.503Z,16.10
2017-09-27T08:18:34.149Z,16.10
2017-09-27T08:21:01.714Z,16.20
2017-09-27T08:23:29.306Z,16.20
2017-09-27T08:25:57.721Z,16.50
2017-09-27T08:28:25.320Z,16.50
2017-09-27T08:30:52.927Z,16.60
2017-09-27T08:33:21.816Z,16.70
2017-09-27T08:35:49.422Z,17.40
2017-09-27T08:38:17.014Z,17.90
2017-09-27T08:40:45.430Z,18.30
2017-09-27T08:43:13.016Z,18.30
2017-09-27T08:45:40.620Z,18.00
2017-09-27T08:48:09.039Z,18.80
2017-09-27T08:50:36.674Z,18.80
2017-09-27T08:53:05.046Z,19.00
2017-09-27T08:55:32.756Z,19.00
2017-09-27T08:58:00.393Z,19.40
2017-09-27T09:00:27.975Z,19.40
2017-09-27T09:02:55.622Z,20.00
2017-09-27T09:05:23.350Z,20.50
2017-09-27T09:07:51.750Z,21.10
2017-09-27T09:10:20.191Z,20.70
2017-09-27T09:12:48.683Z,20.70
2017-09-27T09:15:16.415Z,20.50
2017-09-27T09:17:44.003Z,21.20
2017-09-27T09:20:11.596Z,22.00
2017-09-27T09:22:39.211Z,22.60
2017-09-27T09:25:06.781Z,22.50
2017-09-27T09:27:35.203Z,23.40
2017-09-27T09:30:02.777Z,23.40
2017-09-27T09:32:30.356Z,23.10
2017-09-27T09:34:58.069Z,22.60
2017-09-27T09:37:26.478Z,24.10
2017-09-27T09:39:54.103Z,24.10
2017-09-27T09:42:25.002Z,24.30
2017-09-27T09:44:52.665Z,24.10
2017-09-27T09:47:21.013Z,24.90
2017-09-27T09:49:48.596Z,24.90
2017-09-27T09:52:16.314Z,25.50
2017-09-27T09:54:44.043Z,25.10
2017-09-27T09:57:12.802Z,23.90
2017-09-27T09:59:40.370Z,24.40
2017-09-27T10:02:07.980Z,24.70
2017-09-27T10:04:35.886Z,25.30
2017-09-27T10:07:04.580Z,25.10
2017-09-27T10:09:32.238Z,25.10
2017-09-27T10:12:17.037Z,24.60
2017-09-27T10:15:06.519Z,23.40
2017-09-27T10:17:36.278Z,23.00
2017-09-27T10:20:03.907Z,22.90
2017-09-27T10:22:31.538Z,22.70
2017-09-27T10:24:59.213Z,23.30
2017-09-27T10:27:26.792Z,24.00
2017-09-27T10:29:54.383Z,24.50
2017-09-27T10:32:22.753Z,25.20
2017-09-27T10:34:51.099Z,26.20
2017-09-27T10:37:18.711Z,26.20
2017-09-27T10:39:46.356Z,26.40
2017-09-27T10:42:14.729Z,25.80
2017-09-27T10:44:43.113Z,25.70
2017-09-27T10:47:11.459Z,25.90
2017-09-27T10:49:39.143Z,25.90
2017-09-27T10:52:07.547Z,27.50
2017-09-27T10:54:35.174Z,27.50
2017-09-27T10:57:02.772Z,27.30
2017-09-27T10:59:30.442Z,25.50
2017-09-27T11:01:58.034Z,25.30
2017-09-27T11:04:26.307Z,26.30
2017-09-27T11:06:55.298Z,25.40
2017-09-27T11:09:25.049Z,25.40
2017-09-27T11:11:52.670Z,24.90
2017-09-27T11:14:20.437Z,24.70
2017-09-27T11:16:48.065Z,24.80
2017-09-27T11:19:15.722Z,25.20
2017-09-27T11:21:43.416Z,24.50
2017-09-27T11:24:10.999Z,24.90
2017-09-27T11:26:38.576Z,25.20
2017-09-27T11:29:06.204Z,24.50
2017-09-27T11:31:34.550Z,24.60
2017-09-27T11:34:02.916Z,24.70
2017-09-27T11:36:31.304Z,25.20
2017-09-27T11:38:59.704Z,26.30
2017-09-27T11:41:27.370Z,26.30
2017-09-27T11:43:54.962Z,26.50
2017-09-27T11:46:23.450Z,26.70
2017-09-27T11:48:51.072Z,26.10
2017-09-27T11:51:18.742Z,25.80
2017-09-27T11:53:46.396Z,25.10
2017-09-27T11:56:14.046Z,24.50
2017-09-27T11:58:41.744Z,24.40
2017-09-27T12:01:09.341Z,25.60
2017-09-27T12:03:36.919Z,27.50
2017-09-27T12:06:04.534Z,26.90
2017-09-27T12:08:32.158Z,26.90
2017-09-27T12:11:00.541Z,27.00
2017-09-27T12:13:28.151Z,27.00
2017-09-27T12:15:55.762Z,27.50
2017-09-27T12:18:23.396Z,29.40
2017-09-27T12:20:51.750Z,30.50
2017-09-27T12:23:19.379Z,30.40
2017-09-27T12:25:47.792Z,30.30
2017-09-27T12:28:15.385Z,30.20
2017-09-27T12:30:43.852Z,29.70
2017-09-27T12:33:11.433Z,29.70
2017-09-27T12:35:39.817Z,31.20
2017-09-27T12:38:08.954Z,29.90
2017-09-27T12:40:36.532Z,29.80
2017-09-27T12:43:04.097Z,30.30
2017-09-27T12:45:31.707Z,28.10
2017-09-27T12:47:59.275Z,27.80
2017-09-27T12:50:26.915Z,28.00
2017-09-27T12:52:55.260Z,27.60
2017-09-27T12:55:22.841Z,27.60
2017-09-27T12:57:51.485Z,26.80
2017-09-27T13:00:19.064Z,26.80
2017-09-27T13:02:46.774Z,26.40
2017-09-27T13:05:14.355Z,27.00
2017-09-27T13:07:42.008Z,26.70
2017-09-27T13:10:09.570Z,26.00
2017-09-27T13:12:37.159Z,26.00
2017-09-27T13:15:04.795Z,25.60
2017-09-27T13:17:32.455Z,26.20
2017-09-27T13:20:00.105Z,26.10
2017-09-27T13:22:28.443Z,26.10
2017-09-27T13:25:04.328Z,26.00
2017-09-27T13:27:32.670Z,25.80
2017-09-27T13:30:00.276Z,25.70
2017-09-27T13:32:28.922Z,25.90
2017-09-27T13:34:56.537Z,25.90
2017-09-27T13:37:24.148Z,26.00
2017-09-27T13:39:51.741Z,26.00
2017-09-27T13:42:20.122Z,26.00
2017-09-27T13:44:48.459Z,25.80
2017-09-27T13:47:16.120Z,25.80
2017-09-27T13:49:43.738Z,26.30
2017-09-27T13:52:11.316Z,25.90
2017-09-27T13:54:38.881Z,25.80
2017-09-27T13:57:06.524Z,26.00
2017-09-27T13:59:34.136Z,26.00
2017-09-27T14:02:01.719Z,25.80
2017-09-27T14:04:30.119Z,25.90
2017-09-27T14:06:57.725Z,25.80
2017-09-27T14:09:25.343Z,26.10
2017-09-27T14:11:52.987Z,25.80
2017-09-27T14:14:21.327Z,25.40
2017-09-27T14:16:48.938Z,25.40
2017-09-27T14:19:16.505Z,25.40
2017-09-27T14:21:44.116Z,25.40
2017-09-27T14:24:11.693Z,25.70
2017-09-27T14:26:39.271Z,25.80
2017-09-27T14:29:07.660Z,25.50
2017-09-27T14:31:35.996Z,25.80
2017-09-27T14:34:03.665Z,25.80
2017-09-27T14:36:31.283Z,26.00
2017-09-27T14:38:58.934Z,26.20
2017-09-27T14:41:26.665Z,25.70
2017-09-27T14:43:54.271Z,25.50
2017-09-27T14:46:22.346Z,25.50
2017-09-27T14:48:50.024Z,25.40
2017-09-27T14:51:17.619Z,25.70
2017-09-27T14:53:45.237Z,25.90
2017-09-27T14:56:12.862Z,26.00
2017-09-27T14:58:41.246Z,25.60
2017-09-27T15:01:09.592Z,25.70
2017-09-27T15:03:37.176Z,25.70
2017-09-27T15:06:04.814Z,25.70
2017-09-27T15:08:32.419Z,25.50
2017-09-27T15:11:00.026Z,25.50
2017-09-27T15:13:27.629Z,25.70
2017-09-27T15:15:56.105Z,25.70
2017-09-27T15:18:24.466Z,25.50
2017-09-27T15:20:52.864Z,25.40
2017-09-27T15:23:21.250Z,25.10
2017-09-27T15:26:06.050Z,25.20
2017-09-27T15:28:35.112Z,25.20
2017-09-27T15:31:06.466Z,25.10
2017-09-27T15:33:34.116Z,25.00
2017-09-27T15:36:02.470Z,25.30
2017-09-27T15:38:30.257Z,25.20
2017-09-27T15:40:58.975Z,25.10
2017-09-27T15:43:26.542Z,25.10
2017-09-27T15:45:54.358Z,25.10
2017-09-27T15:48:22.006Z,25.20
2017-09-27T15:50:49.617Z,25.10
2017-09-27T15:53:36.177Z,25.00
2017-09-27T15:56:05.263Z,25.00
2017-09-27T15:58:32.871Z,25.00
2017-09-27T16:01:00.500Z,24.90
2017-09-27T16:03:28.113Z,24.90
2017-09-27T16:05:55.702Z,24.80
2017-09-27T16:08:26.441Z,24.70
2017-09-27T16:10:54.918Z,24.70
2017-09-27T16:13:23.257Z,24.60
2017-09-27T16:15:52.947Z,24.40
2017-09-27T16:18:23.006Z,24.50
2017-09-27T16:20:52.737Z,24.50
2017-09-27T16:23:22.416Z,24.50
2017-09-27T16:25:53.148Z,24.30
2017-09-27T16:28:22.684Z,24.30
2017-09-27T16:30:52.423Z,24.20
2017-09-27T16:33:21.959Z,24.20
2017-09-27T16:35:51.635Z,24.10
2017-09-27T16:38:21.468Z,24.10
2017-09-27T16:40:52.345Z,24.00
2017-09-27T16:43:23.828Z,23.90
2017-09-27T16:45:53.933Z,23.90
2017-09-27T16:48:24.554Z,23.90
2017-09-27T16:50:55.353Z,23.90
2017-09-27T16:53:25.979Z,23.80
2017-09-27T16:55:56.338Z,23.80
2017-09-27T16:58:26.224Z,23.70
2017-09-27T17:00:57.660Z,22.90
2017-09-27T17:03:27.541Z,22.90
2017-09-27T17:05:57.197Z,23.00
2017-09-27T17:08:28.759Z,22.80
2017-09-27T17:10:58.615Z,22.80
2017-09-27T17:13:28.571Z,22.10
2017-09-27T17:15:59.204Z,21.70
2017-09-27T17:18:28.840Z,21.70
2017-09-27T17:20:58.605Z,21.00
2017-09-27T17:23:29.725Z,21.00
2017-09-27T17:25:59.551Z,21.20
2017-09-27T17:28:29.158Z,21.80
2017-09-27T17:31:01.019Z,22.10
2017-09-27T17:33:33.822Z,22.40
2017-09-27T17:36:04.970Z,22.50
2017-09-27T17:38:35.015Z,21.70
2017-09-27T17:41:04.809Z,21.70
2017-09-27T17:43:35.514Z,22.00
2017-09-27T17:46:06.603Z,22.00
2017-09-27T17:48:37.976Z,22.20
2017-09-27T17:51:07.538Z,22.20
2017-09-27T17:53:37.405Z,22.30
2017-09-27T17:56:07.344Z,21.70
2017-09-27T17:58:37.356Z,21.20
2017-09-27T18:01:06.935Z,21.30
2017-09-27T18:03:37.706Z,21.00
2017-09-27T18:06:22.873Z,20.70
2017-09-27T18:08:59.134Z,20.90
2017-09-27T18:11:34.184Z,21.10
2017-09-27T18:14:20.657Z,20.70
2017-09-27T18:17:05.976Z,20.80
2017-09-27T18:19:36.103Z,20.40
2017-09-27T18:22:07.346Z,20.90
2017-09-27T18:24:37.931Z,21.30
2017-09-27T18:27:08.543Z,21.50
2017-09-27T18:29:38.472Z,21.60
2017-09-27T18:32:08.601Z,21.60
2017-09-27T18:34:39.181Z,21.60
2017-09-27T18:37:08.998Z,21.60
2017-09-27T18:39:38.776Z,21.50
2017-09-27T18:42:08.603Z,21.40
2017-09-27T18:44:38.304Z,21.20
2017-09-27T18:47:07.964Z,21.30
2017-09-27T18:49:38.639Z,21.20
2017-09-27T18:52:08.227Z,21.30
2017-09-27T18:54:38.152Z,21.30
2017-09-27T18:57:08.018Z,21.20
2017-09-27T18:59:38.488Z,21.20
2017-09-27T19:02:08.080Z,21.10
2017-09-27T19:04:37.442Z,21.00
2017-09-27T19:07:08.219Z,20.50
2017-09-27T19:09:38.093Z,19.80
2017-09-27T19:12:08.540Z,20.10
2017-09-27T19:14:39.735Z,19.50
2017-09-27T19:17:10.921Z,19.50
2017-09-27T19:19:42.574Z,20.00
2017-09-27T19:22:12.962Z,20.20
2017-09-27T19:24:42.620Z,20.20
2017-09-27T19:27:13.217Z,20.20
2017-09-27T19:29:44.116Z,20.20
2017-09-27T19:32:13.894Z,20.20
2017-09-27T19:34:44.016Z,20.50
2017-09-27T19:37:14.338Z,20.50
2017-09-27T19:39:44.968Z,20.40
2017-09-27T19:42:14.685Z,20.40
2017-09-27T19:44:46.353Z,20.40
2017-09-27T19:47:16.958Z,20.20
2017-09-27T19:49:47.627Z,20.10
2017-09-27T19:52:17.308Z,19.80
2017-09-27T19:54:48.156Z,19.50
2017-09-27T19:57:18.861Z,19.50
2017-09-27T19:59:50.352Z,19.50
2017-09-27T20:02:21.080Z,19.50
2017-09-27T20:04:50.880Z,19.50
2017-09-27T20:07:20.883Z,19.40
2017-09-27T20:09:50.812Z,19.20
2017-09-27T20:12:22.118Z,19.00
2017-09-27T20:14:52.821Z,19.00
2017-09-27T20:17:23.372Z,19.00
2017-09-27T20:19:53.008Z,19.00
2017-09-27T20:22:32.492Z,19.30
2017-09-27T20:25:02.247Z,19.10
2017-09-27T20:27:31.978Z,19.10
2017-09-27T20:30:01.631Z,19.20
2017-09-27T20:32:32.379Z,19.20
2017-09-27T20:35:02.399Z,19.30
2017-09-27T20:37:32.959Z,18.80
2017-09-27T20:40:03.672Z,18.80
2017-09-27T20:42:33.375Z,19.00
2017-09-27T20:45:04.180Z,18.70
2017-09-27T20:47:34.787Z,18.60
2017-09-27T20:50:04.325Z,18.60
2017-09-27T20:52:34.187Z,18.80
2017-09-27T20:55:04.708Z,19.00
2017-09-27T20:57:34.518Z,19.10
2017-09-27T21:00:04.233Z,18.90
2017-09-27T21:02:34.700Z,19.00
2017-09-27T21:05:04.450Z,19.00
2017-09-27T21:07:36.219Z,19.10
2017-09-27T21:10:07.378Z,19.10
2017-09-27T21:12:38.238Z,19.20
2017-09-27T21:15:08.362Z,18.90
2017-09-27T21:17:39.161Z,18.50
2017-09-27T21:20:17.833Z,18.60
2017-09-27T21:22:57.704Z,18.70
2017-09-27T21:25:27.893Z,18.80
2017-09-27T21:27:57.879Z,18.70
2017-09-27T21:30:27.782Z,19.00
2017-09-27T21:32:57.677Z,18.90
2017-09-27T21:35:28.353Z,18.70
2017-09-27T21:37:59.141Z,18.50
2017-09-27T21:40:29.729Z,19.00
2017-09-27T21:42:59.352Z,18.90
2017-09-27T21:45:29.294Z,19.00
2017-09-27T21:48:00.633Z,18.90
2017-09-27T21:50:31.098Z,18.90
2017-09-27T21:53:00.806Z,19.00
2017-09-27T21:55:30.699Z,19.00
2017-09-27T21:58:01.923Z,18.80
2017-09-27T22:00:31.812Z,18.80
2017-09-27T22:03:01.485Z,18.50
2017-09-27T22:05:31.235Z,18.50
2017-09-27T22:08:01.046Z,18.40
2017-09-27T22:10:33.454Z,18.20
2017-09-27T22:13:07.391Z,18.40
2017-09-27T22:15:38.730Z,18.50
2017-09-27T22:18:09.431Z,18.20
2017-09-27T22:20:39.118Z,17.80
2017-09-27T22:23:08.746Z,17.50
2017-09-27T22:25:39.436Z,17.20
2017-09-27T22:28:10.941Z,17.10
2017-09-27T22:30:42.701Z,17.10
2017-09-27T22:33:13.355Z,17.50
2017-09-27T22:35:45.286Z,17.70
2017-09-27T22:38:15.153Z,17.70
2017-09-27T22:40:44.793Z,17.60
2017-09-27T22:43:21.628Z,17.50
2017-09-27T22:45:52.272Z,17.60
2017-09-27T22:48:22.081Z,17.60
2017-09-27T22:50:52.146Z,17.90
2017-09-27T22:53:22.851Z,18.20
2017-09-27T22:55:54.673Z,18.50
2017-09-27T22:58:25.169Z,18.00
2017-09-27T23:00:55.031Z,18.00
2017-09-27T23:03:28.766Z,17.90
2017-09-27T23:05:58.533Z,18.20
2017-09-27T23:08:30.900Z,17.90
2017-09-27T23:11:01.376Z,17.80
2017-09-27T23:13:31.151Z,17.70
2017-09-27T23:16:04.355Z,17.80
2017-09-27T23:18:35.856Z,17.60
2017-09-27T23:21:08.318Z,17.60
2017-09-27T23:23:38.004Z,17.70
2017-09-27T23:26:11.379Z,17.70
2017-09-27T23:28:42.742Z,17.90
2017-09-27T23:31:13.836Z,17.80
2017-09-27T23:33:43.556Z,17.60
2017-09-27T23:36:12.919Z,17.50
2017-09-27T23:38:45.474Z,17.70
2017-09-27T23:41:15.363Z,17.90
2017-09-27T23:43:45.760Z,17.90
2017-09-27T23:46:16.628Z,18.10
2017-09-27T23:48:47.095Z,17.80
2017-09-27T23:51:16.943Z,17.80
2017-09-27T23:53:46.678Z,17.50
2017-09-27T23:56:20.733Z,17.20
2017-09-27T23:58:50.659Z,17.30
